sensor_id;sensor_type;location;lat;lon;timestamp;P1;durP1;ratioP1;P2;durP2;ratioP2
59181;SDS011;45293;44.606;21.176;2022-11-23T00:01:29;13.13;;;6.18;;
59181;SDS011;45293;44.606;21.176;2022-11-23T00:03:57;11.40;;;6.43;;
59181;SDS011;45293;44.606;21.176;2022-11-23T00:06:25;12.10;;;6.15;;
59181;SDS011;45293;44.606;21.176;2022-11-23T00:08:51;10.80;;;5.30;;
59181;SDS011;45293;44.606;21.176;2022-11-23T00:11:18;11.95;;;5.72;;
59181;SDS011;45293;44.606;21.176;2022-11-23T00:13:44;12.35;;;5.47;;
59181;SDS011;45293;44.606;21.176;2022-11-23T00:16:12;14.23;;;5.07;;
59181;SDS011;45293;44.606;21.176;2022-11-23T00:18:39;12.90;;;6.47;;
59181;SDS011;45293;44.606;21.176;2022-11-23T00:21:06;13.32;;;6.57;;
59181;SDS011;45293;44.606;21.176;2022-11-23T00:23:32;12.48;;;6.13;;
59181;SDS011;45293;44.606;21.176;2022-11-23T00:25:58;8.48;;;5.05;;
59181;SDS011;45293;44.606;21.176;2022-11-23T00:28:24;13.82;;;5.18;;
59181;SDS011;45293;44.606;21.176;2022-11-23T00:30:50;9.77;;;5.47;;
59181;SDS011;45293;44.606;21.176;2022-11-23T00:33:16;10.88;;;5.10;;
59181;SDS011;45293;44.606;21.176;2022-11-23T00:35:43;7.85;;;4.28;;
59181;SDS011;45293;44.606;21.176;2022-11-23T00:38:09;14.07;;;5.90;;
59181;SDS011;45293;44.606;21.176;2022-11-23T00:40:35;11.73;;;5.80;;
59181;SDS011;45293;44.606;21.176;2022-11-23T00:43:01;12.10;;;5.80;;
59181;SDS011;45293;44.606;21.176;2022-11-23T00:45:27;11.90;;;5.07;;
59181;SDS011;45293;44.606;21.176;2022-11-23T00:47:53;10.90;;;5.40;;
59181;SDS011;45293;44.606;21.176;2022-11-23T00:50:20;11.50;;;5.53;;
59181;SDS011;45293;44.606;21.176;2022-11-23T00:52:46;10.13;;;4.55;;
59181;SDS011;45293;44.606;21.176;2022-11-23T00:55:12;6.70;;;3.65;;
59181;SDS011;45293;44.606;21.176;2022-11-23T00:57:38;11.32;;;4.85;;
59181;SDS011;45293;44.606;21.176;2022-11-23T01:00:04;9.20;;;4.50;;
59181;SDS011;45293;44.606;21.176;2022-11-23T01:02:32;9.82;;;4.53;;
59181;SDS011;45293;44.606;21.176;2022-11-23T01:04:59;8.88;;;4.07;;
59181;SDS011;45293;44.606;21.176;2022-11-23T01:07:26;11.23;;;4.75;;
59181;SDS011;45293;44.606;21.176;2022-11-23T01:09:54;11.70;;;4.10;;
59181;SDS011;45293;44.606;21.176;2022-11-23T01:12:20;9.10;;;4.22;;
59181;SDS011;45293;44.606;21.176;2022-11-23T01:14:46;10.45;;;4.40;;
59181;SDS011;45293;44.606;21.176;2022-11-23T01:17:12;11.68;;;5.25;;
59181;SDS011;45293;44.606;21.176;2022-11-23T01:19:39;11.88;;;5.82;;
59181;SDS011;45293;44.606;21.176;2022-11-23T01:22:05;10.20;;;4.70;;
59181;SDS011;45293;44.606;21.176;2022-11-23T01:24:31;10.43;;;4.78;;
59181;SDS011;45293;44.606;21.176;2022-11-23T01:26:57;9.07;;;5.00;;
59181;SDS011;45293;44.606;21.176;2022-11-23T01:29:23;11.20;;;4.75;;
59181;SDS011;45293;44.606;21.176;2022-11-23T01:31:49;12.27;;;5.40;;
59181;SDS011;45293;44.606;21.176;2022-11-23T01:34:16;9.27;;;3.97;;
59181;SDS011;45293;44.606;21.176;2022-11-23T01:36:42;8.73;;;4.60;;
59181;SDS011;45293;44.606;21.176;2022-11-23T01:39:08;15.93;;;6.35;;
59181;SDS011;45293;44.606;21.176;2022-11-23T01:41:36;13.88;;;6.90;;
59181;SDS011;45293;44.606;21.176;2022-11-23T01:46:47;17.67;;;7.07;;
59181;SDS011;45293;44.606;21.176;2022-11-23T01:49:13;10.52;;;5.55;;
59181;SDS011;45293;44.606;21.176;2022-11-23T01:51:40;13.75;;;6.60;;
59181;SDS011;45293;44.606;21.176;2022-11-23T01:54:08;10.25;;;5.22;;
59181;SDS011;45293;44.606;21.176;2022-11-23T01:56:36;14.38;;;6.32;;
59181;SDS011;45293;44.606;21.176;2022-11-23T01:59:06;14.48;;;5.80;;
59181;SDS011;45293;44.606;21.176;2022-11-23T02:01:32;11.40;;;6.43;;
59181;SDS011;45293;44.606;21.176;2022-11-23T02:03:59;13.80;;;5.97;;
59181;SDS011;45293;44.606;21.176;2022-11-23T02:06:26;14.38;;;7.05;;
59181;SDS011;45293;44.606;21.176;2022-11-23T02:08:52;13.25;;;5.45;;
59181;SDS011;45293;44.606;21.176;2022-11-23T02:11:18;9.85;;;5.03;;
59181;SDS011;45293;44.606;21.176;2022-11-23T02:13:44;9.75;;;5.38;;
59181;SDS011;45293;44.606;21.176;2022-11-23T02:16:12;16.33;;;5.72;;
59181;SDS011;45293;44.606;21.176;2022-11-23T02:18:40;14.27;;;7.47;;
59181;SDS011;45293;44.606;21.176;2022-11-23T02:21:06;11.40;;;6.18;;
59181;SDS011;45293;44.606;21.176;2022-11-23T02:23:35;12.23;;;6.55;;
59181;SDS011;45293;44.606;21.176;2022-11-23T02:28:42;14.07;;;6.13;;
59181;SDS011;45293;44.606;21.176;2022-11-23T02:31:10;11.77;;;5.78;;
59181;SDS011;45293;44.606;21.176;2022-11-23T02:33:39;15.30;;;7.53;;
59181;SDS011;45293;44.606;21.176;2022-11-23T02:38:50;15.95;;;6.75;;
59181;SDS011;45293;44.606;21.176;2022-11-23T02:41:16;14.68;;;6.82;;
59181;SDS011;45293;44.606;21.176;2022-11-23T02:43:42;15.88;;;7.40;;
59181;SDS011;45293;44.606;21.176;2022-11-23T02:46:08;16.63;;;5.85;;
59181;SDS011;45293;44.606;21.176;2022-11-23T02:48:34;14.82;;;6.80;;
59181;SDS011;45293;44.606;21.176;2022-11-23T02:51:00;12.48;;;6.40;;
59181;SDS011;45293;44.606;21.176;2022-11-23T02:53:26;13.05;;;7.57;;
59181;SDS011;45293;44.606;21.176;2022-11-23T02:55:52;16.50;;;7.47;;
59181;SDS011;45293;44.606;21.176;2022-11-23T02:58:19;15.55;;;6.90;;
59181;SDS011;45293;44.606;21.176;2022-11-23T03:00:45;12.35;;;6.72;;
59181;SDS011;45293;44.606;21.176;2022-11-23T03:03:11;14.25;;;6.80;;
59181;SDS011;45293;44.606;21.176;2022-11-23T03:05:37;17.40;;;6.35;;
59181;SDS011;45293;44.606;21.176;2022-11-23T03:08:03;13.52;;;6.43;;
59181;SDS011;45293;44.606;21.176;2022-11-23T03:10:29;10.10;;;5.68;;
59181;SDS011;45293;44.606;21.176;2022-11-23T03:12:55;12.95;;;6.03;;
59181;SDS011;45293;44.606;21.176;2022-11-23T03:15:22;9.57;;;5.97;;
59181;SDS011;45293;44.606;21.176;2022-11-23T03:17:48;14.55;;;7.07;;
59181;SDS011;45293;44.606;21.176;2022-11-23T03:20:14;12.57;;;6.60;;
59181;SDS011;45293;44.606;21.176;2022-11-23T03:22:40;13.23;;;6.65;;
59181;SDS011;45293;44.606;21.176;2022-11-23T03:25:07;13.57;;;6.55;;
59181;SDS011;45293;44.606;21.176;2022-11-23T03:27:33;15.32;;;6.13;;
59181;SDS011;45293;44.606;21.176;2022-11-23T03:29:59;12.00;;;6.30;;
59181;SDS011;45293;44.606;21.176;2022-11-23T03:32:25;13.05;;;6.50;;
59181;SDS011;45293;44.606;21.176;2022-11-23T03:34:51;13.07;;;5.47;;
59181;SDS011;45293;44.606;21.176;2022-11-23T03:37:17;14.10;;;5.40;;
59181;SDS011;45293;44.606;21.176;2022-11-23T03:39:44;15.20;;;6.63;;
59181;SDS011;45293;44.606;21.176;2022-11-23T03:42:10;14.25;;;6.60;;
59181;SDS011;45293;44.606;21.176;2022-11-23T03:44:36;12.80;;;6.05;;
59181;SDS011;45293;44.606;21.176;2022-11-23T03:47:02;10.23;;;5.72;;
59181;SDS011;45293;44.606;21.176;2022-11-23T03:49:28;10.98;;;5.50;;
59181;SDS011;45293;44.606;21.176;2022-11-23T03:51:54;10.73;;;5.53;;
59181;SDS011;45293;44.606;21.176;2022-11-23T03:54:20;12.93;;;5.47;;
59181;SDS011;45293;44.606;21.176;2022-11-23T03:56:46;11.88;;;5.90;;
59181;SDS011;45293;44.606;21.176;2022-11-23T03:59:37;15.52;;;6.43;;
59181;SDS011;45293;44.606;21.176;2022-11-23T04:02:03;10.88;;;4.72;;
59181;SDS011;45293;44.606;21.176;2022-11-23T04:04:31;9.68;;;5.10;;
59181;SDS011;45293;44.606;21.176;2022-11-23T04:06:58;15.93;;;7.43;;
59181;SDS011;45293;44.606;21.176;2022-11-23T04:09:24;11.52;;;6.47;;
59181;SDS011;45293;44.606;21.176;2022-11-23T04:11:50;12.35;;;6.00;;
59181;SDS011;45293;44.606;21.176;2022-11-23T04:14:16;13.13;;;6.65;;
59181;SDS011;45293;44.606;21.176;2022-11-23T04:16:42;12.60;;;7.40;;
59181;SDS011;45293;44.606;21.176;2022-11-23T04:19:08;13.10;;;7.63;;
59181;SDS011;45293;44.606;21.176;2022-11-23T04:21:34;11.40;;;6.28;;
59181;SDS011;45293;44.606;21.176;2022-11-23T04:24:00;11.60;;;5.78;;
59181;SDS011;45293;44.606;21.176;2022-11-23T04:26:26;16.20;;;6.78;;
59181;SDS011;45293;44.606;21.176;2022-11-23T04:28:52;15.93;;;6.93;;
59181;SDS011;45293;44.606;21.176;2022-11-23T04:31:19;27.73;;;10.85;;
59181;SDS011;45293;44.606;21.176;2022-11-23T04:33:45;20.00;;;8.95;;
59181;SDS011;45293;44.606;21.176;2022-11-23T04:36:11;18.27;;;8.50;;
59181;SDS011;45293;44.606;21.176;2022-11-23T04:38:37;20.48;;;8.43;;
59181;SDS011;45293;44.606;21.176;2022-11-23T04:41:03;24.63;;;8.52;;
59181;SDS011;45293;44.606;21.176;2022-11-23T04:43:29;22.77;;;9.98;;
59181;SDS011;45293;44.606;21.176;2022-11-23T04:45:56;18.83;;;9.88;;
59181;SDS011;45293;44.606;21.176;2022-11-23T04:48:22;20.92;;;9.75;;
59181;SDS011;45293;44.606;21.176;2022-11-23T04:50:48;17.35;;;8.85;;
59181;SDS011;45293;44.606;21.176;2022-11-23T04:53:14;16.85;;;7.68;;
59181;SDS011;45293;44.606;21.176;2022-11-23T04:55:40;19.08;;;8.90;;
59181;SDS011;45293;44.606;21.176;2022-11-23T04:58:06;17.02;;;7.43;;
59181;SDS011;45293;44.606;21.176;2022-11-23T05:00:33;16.52;;;7.72;;
59181;SDS011;45293;44.606;21.176;2022-11-23T05:03:00;21.50;;;9.15;;
59181;SDS011;45293;44.606;21.176;2022-11-23T05:05:26;18.50;;;8.15;;
59181;SDS011;45293;44.606;21.176;2022-11-23T05:07:52;17.00;;;7.93;;
59181;SDS011;45293;44.606;21.176;2022-11-23T05:10:18;16.75;;;8.70;;
59181;SDS011;45293;44.606;21.176;2022-11-23T05:12:44;22.88;;;9.40;;
59181;SDS011;45293;44.606;21.176;2022-11-23T05:15:11;22.52;;;10.75;;
59181;SDS011;45293;44.606;21.176;2022-11-23T05:17:40;17.73;;;8.05;;
59181;SDS011;45293;44.606;21.176;2022-11-23T05:20:06;18.50;;;9.18;;
59181;SDS011;45293;44.606;21.176;2022-11-23T05:22:33;16.88;;;7.28;;
59181;SDS011;45293;44.606;21.176;2022-11-23T05:24:59;14.20;;;7.50;;
59181;SDS011;45293;44.606;21.176;2022-11-23T05:27:25;16.88;;;8.45;;
59181;SDS011;45293;44.606;21.176;2022-11-23T05:29:51;33.50;;;12.23;;
59181;SDS011;45293;44.606;21.176;2022-11-23T05:32:17;26.80;;;11.18;;
59181;SDS011;45293;44.606;21.176;2022-11-23T05:34:43;31.58;;;12.15;;
59181;SDS011;45293;44.606;21.176;2022-11-23T05:37:09;24.27;;;10.43;;
59181;SDS011;45293;44.606;21.176;2022-11-23T05:39:35;31.40;;;11.98;;
59181;SDS011;45293;44.606;21.176;2022-11-23T05:42:01;26.67;;;10.13;;
59181;SDS011;45293;44.606;21.176;2022-11-23T05:44:28;23.73;;;8.90;;
59181;SDS011;45293;44.606;21.176;2022-11-23T05:46:54;19.92;;;9.02;;
59181;SDS011;45293;44.606;21.176;2022-11-23T05:49:20;21.05;;;10.57;;
59181;SDS011;45293;44.606;21.176;2022-11-23T05:51:46;20.75;;;8.80;;
59181;SDS011;45293;44.606;21.176;2022-11-23T05:54:12;15.55;;;8.57;;
59181;SDS011;45293;44.606;21.176;2022-11-23T05:56:38;22.02;;;8.77;;
59181;SDS011;45293;44.606;21.176;2022-11-23T05:59:04;25.60;;;9.77;;
59181;SDS011;45293;44.606;21.176;2022-11-23T06:01:32;30.67;;;11.80;;
59181;SDS011;45293;44.606;21.176;2022-11-23T06:03:58;15.07;;;6.95;;
59181;SDS011;45293;44.606;21.176;2022-11-23T06:06:24;17.63;;;6.35;;
59181;SDS011;45293;44.606;21.176;2022-11-23T06:08:50;24.55;;;10.07;;
59181;SDS011;45293;44.606;21.176;2022-11-23T06:11:16;21.70;;;8.18;;
59181;SDS011;45293;44.606;21.176;2022-11-23T06:13:45;21.10;;;9.55;;
59181;SDS011;45293;44.606;21.176;2022-11-23T06:16:11;28.02;;;10.63;;
59181;SDS011;45293;44.606;21.176;2022-11-23T06:18:37;25.20;;;10.82;;
59181;SDS011;45293;44.606;21.176;2022-11-23T06:21:03;22.73;;;8.73;;
59181;SDS011;45293;44.606;21.176;2022-11-23T06:23:29;18.58;;;8.60;;
59181;SDS011;45293;44.606;21.176;2022-11-23T06:25:59;25.10;;;9.98;;
59181;SDS011;45293;44.606;21.176;2022-11-23T06:28:25;36.20;;;12.85;;
59181;SDS011;45293;44.606;21.176;2022-11-23T06:30:53;29.75;;;13.52;;
59181;SDS011;45293;44.606;21.176;2022-11-23T06:33:19;32.90;;;12.02;;
59181;SDS011;45293;44.606;21.176;2022-11-23T06:35:55;24.58;;;10.60;;
59181;SDS011;45293;44.606;21.176;2022-11-23T06:38:21;22.85;;;9.40;;
59181;SDS011;45293;44.606;21.176;2022-11-23T06:40:47;24.00;;;11.13;;
59181;SDS011;45293;44.606;21.176;2022-11-23T06:43:13;30.65;;;12.07;;
59181;SDS011;45293;44.606;21.176;2022-11-23T06:45:39;22.52;;;10.30;;
59181;SDS011;45293;44.606;21.176;2022-11-23T06:48:05;21.65;;;9.15;;
59181;SDS011;45293;44.606;21.176;2022-11-23T06:50:31;25.42;;;10.93;;
59181;SDS011;45293;44.606;21.176;2022-11-23T06:52:57;25.30;;;10.45;;
59181;SDS011;45293;44.606;21.176;2022-11-23T06:55:24;25.45;;;10.82;;
59181;SDS011;45293;44.606;21.176;2022-11-23T06:57:50;24.58;;;10.23;;
59181;SDS011;45293;44.606;21.176;2022-11-23T07:00:17;27.85;;;10.75;;
59181;SDS011;45293;44.606;21.176;2022-11-23T07:02:47;23.75;;;10.90;;
59181;SDS011;45293;44.606;21.176;2022-11-23T07:05:15;33.28;;;12.70;;
59181;SDS011;45293;44.606;21.176;2022-11-23T07:07:41;21.52;;;10.07;;
59181;SDS011;45293;44.606;21.176;2022-11-23T07:10:07;14.70;;;7.35;;
59181;SDS011;45293;44.606;21.176;2022-11-23T07:12:33;26.02;;;10.32;;
59181;SDS011;45293;44.606;21.176;2022-11-23T07:14:59;23.63;;;10.65;;
59181;SDS011;45293;44.606;21.176;2022-11-23T07:17:25;24.48;;;10.07;;
59181;SDS011;45293;44.606;21.176;2022-11-23T07:19:52;27.52;;;13.60;;
59181;SDS011;45293;44.606;21.176;2022-11-23T07:22:18;23.27;;;10.30;;
59181;SDS011;45293;44.606;21.176;2022-11-23T07:24:44;24.48;;;10.90;;
59181;SDS011;45293;44.606;21.176;2022-11-23T07:27:10;27.27;;;10.40;;
59181;SDS011;45293;44.606;21.176;2022-11-23T07:29:36;24.90;;;10.70;;
59181;SDS011;45293;44.606;21.176;2022-11-23T07:32:02;23.80;;;10.68;;
59181;SDS011;45293;44.606;21.176;2022-11-23T07:34:28;22.27;;;9.68;;
59181;SDS011;45293;44.606;21.176;2022-11-23T07:36:54;19.60;;;9.15;;
59181;SDS011;45293;44.606;21.176;2022-11-23T07:39:20;21.58;;;8.88;;
59181;SDS011;45293;44.606;21.176;2022-11-23T07:41:49;21.98;;;9.32;;
59181;SDS011;45293;44.606;21.176;2022-11-23T07:44:15;29.00;;;12.07;;
59181;SDS011;45293;44.606;21.176;2022-11-23T07:46:41;25.73;;;10.23;;
59181;SDS011;45293;44.606;21.176;2022-11-23T07:49:08;27.80;;;10.70;;
59181;SDS011;45293;44.606;21.176;2022-11-23T07:51:34;25.55;;;9.63;;
59181;SDS011;45293;44.606;21.176;2022-11-23T07:54:00;31.27;;;13.63;;
59181;SDS011;45293;44.606;21.176;2022-11-23T07:56:26;27.60;;;11.98;;
59181;SDS011;45293;44.606;21.176;2022-11-23T07:58:53;37.42;;;14.48;;
59181;SDS011;45293;44.606;21.176;2022-11-23T08:01:19;33.55;;;14.00;;
59181;SDS011;45293;44.606;21.176;2022-11-23T08:03:45;23.50;;;10.85;;
59181;SDS011;45293;44.606;21.176;2022-11-23T08:06:12;32.25;;;12.77;;
59181;SDS011;45293;44.606;21.176;2022-11-23T08:08:38;49.97;;;19.65;;
59181;SDS011;45293;44.606;21.176;2022-11-23T08:11:05;34.65;;;15.43;;
59181;SDS011;45293;44.606;21.176;2022-11-23T08:13:31;52.03;;;19.05;;
59181;SDS011;45293;44.606;21.176;2022-11-23T08:15:58;25.30;;;13.05;;
59181;SDS011;45293;44.606;21.176;2022-11-23T08:18:25;26.35;;;14.45;;
59181;SDS011;45293;44.606;21.176;2022-11-23T08:20:51;18.65;;;10.32;;
59181;SDS011;45293;44.606;21.176;2022-11-23T08:23:18;28.13;;;12.73;;
59181;SDS011;45293;44.606;21.176;2022-11-23T08:25:44;30.98;;;12.90;;
59181;SDS011;45293;44.606;21.176;2022-11-23T08:28:10;29.05;;;12.57;;
59181;SDS011;45293;44.606;21.176;2022-11-23T08:30:36;35.60;;;16.08;;
59181;SDS011;45293;44.606;21.176;2022-11-23T08:33:03;44.05;;;16.50;;
59181;SDS011;45293;44.606;21.176;2022-11-23T08:35:29;32.63;;;15.52;;
59181;SDS011;45293;44.606;21.176;2022-11-23T08:37:55;32.25;;;15.57;;
59181;SDS011;45293;44.606;21.176;2022-11-23T08:40:21;32.85;;;15.32;;
59181;SDS011;45293;44.606;21.176;2022-11-23T08:42:47;39.90;;;19.75;;
59181;SDS011;45293;44.606;21.176;2022-11-23T08:45:13;33.20;;;16.55;;
59181;SDS011;45293;44.606;21.176;2022-11-23T08:47:39;25.67;;;12.77;;
59181;SDS011;45293;44.606;21.176;2022-11-23T08:50:06;30.50;;;16.25;;
59181;SDS011;45293;44.606;21.176;2022-11-23T08:52:32;35.00;;;19.05;;
59181;SDS011;45293;44.606;21.176;2022-11-23T08:54:58;40.30;;;19.90;;
59181;SDS011;45293;44.606;21.176;2022-11-23T08:57:25;46.35;;;22.23;;
59181;SDS011;45293;44.606;21.176;2022-11-23T08:59:52;43.17;;;19.67;;
59181;SDS011;45293;44.606;21.176;2022-11-23T09:02:18;48.45;;;21.25;;
59181;SDS011;45293;44.606;21.176;2022-11-23T09:04:44;35.63;;;17.65;;
59181;SDS011;45293;44.606;21.176;2022-11-23T09:07:10;45.65;;;19.90;;
59181;SDS011;45293;44.606;21.176;2022-11-23T09:09:36;42.08;;;19.92;;
59181;SDS011;45293;44.606;21.176;2022-11-23T09:12:02;34.85;;;17.35;;
59181;SDS011;45293;44.606;21.176;2022-11-23T09:14:28;35.72;;;17.23;;
59181;SDS011;45293;44.606;21.176;2022-11-23T09:16:54;30.42;;;15.00;;
59181;SDS011;45293;44.606;21.176;2022-11-23T09:19:21;31.90;;;17.20;;
59181;SDS011;45293;44.606;21.176;2022-11-23T09:21:47;39.95;;;18.40;;
59181;SDS011;45293;44.606;21.176;2022-11-23T09:24:13;39.53;;;20.27;;
59181;SDS011;45293;44.606;21.176;2022-11-23T09:26:39;33.63;;;16.58;;
59181;SDS011;45293;44.606;21.176;2022-11-23T09:29:06;24.92;;;13.55;;
59181;SDS011;45293;44.606;21.176;2022-11-23T09:31:32;29.95;;;15.27;;
59181;SDS011;45293;44.606;21.176;2022-11-23T09:33:58;33.47;;;15.63;;
59181;SDS011;45293;44.606;21.176;2022-11-23T09:36:24;36.05;;;17.33;;
59181;SDS011;45293;44.606;21.176;2022-11-23T09:38:51;30.42;;;15.32;;
59181;SDS011;45293;44.606;21.176;2022-11-23T09:44:13;44.53;;;19.17;;
59181;SDS011;45293;44.606;21.176;2022-11-23T09:50:02;45.17;;;18.42;;
59181;SDS011;45293;44.606;21.176;2022-11-23T09:52:21;31.85;;;14.65;;
59181;SDS011;45293;44.606;21.176;2022-11-23T09:54:49;21.00;;;9.38;;
59181;SDS011;45293;44.606;21.176;2022-11-23T09:57:18;18.17;;;8.27;;
59181;SDS011;45293;44.606;21.176;2022-11-23T09:59:49;15.00;;;5.80;;
59181;SDS011;45293;44.606;21.176;2022-11-23T10:02:22;9.82;;;5.28;;
59181;SDS011;45293;44.606;21.176;2022-11-23T10:04:49;13.27;;;6.07;;
59181;SDS011;45293;44.606;21.176;2022-11-23T10:09:46;11.90;;;5.53;;
59181;SDS011;45293;44.606;21.176;2022-11-23T10:19:54;25.05;;;9.70;;
59181;SDS011;45293;44.606;21.176;2022-11-23T10:24:51;24.67;;;10.07;;
59181;SDS011;45293;44.606;21.176;2022-11-23T10:27:20;17.02;;;9.27;;
59181;SDS011;45293;44.606;21.176;2022-11-23T10:29:46;19.40;;;10.05;;
59181;SDS011;45293;44.606;21.176;2022-11-23T10:37:33;27.08;;;11.65;;
59181;SDS011;45293;44.606;21.176;2022-11-23T10:39:59;27.02;;;9.30;;
59181;SDS011;45293;44.606;21.176;2022-11-23T10:42:33;20.52;;;8.90;;
59181;SDS011;45293;44.606;21.176;2022-11-23T10:45:01;17.20;;;7.85;;
59181;SDS011;45293;44.606;21.176;2022-11-23T10:47:39;16.50;;;8.30;;
59181;SDS011;45293;44.606;21.176;2022-11-23T10:50:48;19.40;;;7.50;;
59181;SDS011;45293;44.606;21.176;2022-11-23T10:55:33;20.80;;;8.07;;
59181;SDS011;45293;44.606;21.176;2022-11-23T10:58:22;20.65;;;6.95;;
59181;SDS011;45293;44.606;21.176;2022-11-23T11:00:57;15.90;;;6.88;;
59181;SDS011;45293;44.606;21.176;2022-11-23T11:03:23;18.73;;;8.23;;
59181;SDS011;45293;44.606;21.176;2022-11-23T11:05:49;21.50;;;8.05;;
59181;SDS011;45293;44.606;21.176;2022-11-23T11:08:17;21.58;;;8.25;;
59181;SDS011;45293;44.606;21.176;2022-11-23T11:10:47;19.83;;;7.97;;
59181;SDS011;45293;44.606;21.176;2022-11-23T11:18:40;16.65;;;7.30;;
59181;SDS011;45293;44.606;21.176;2022-11-23T11:21:15;20.35;;;8.88;;
59181;SDS011;45293;44.606;21.176;2022-11-23T11:23:42;19.95;;;8.57;;
59181;SDS011;45293;44.606;21.176;2022-11-23T11:26:20;26.75;;;10.75;;
59181;SDS011;45293;44.606;21.176;2022-11-23T11:28:57;27.10;;;12.15;;
59181;SDS011;45293;44.606;21.176;2022-11-23T11:34:15;31.13;;;14.13;;
59181;SDS011;45293;44.606;21.176;2022-11-23T11:37:26;30.52;;;13.73;;
59181;SDS011;45293;44.606;21.176;2022-11-23T11:39:49;35.15;;;12.82;;
59181;SDS011;45293;44.606;21.176;2022-11-23T11:42:20;22.88;;;10.40;;
59181;SDS011;45293;44.606;21.176;2022-11-23T11:44:48;36.58;;;15.35;;
59181;SDS011;45293;44.606;21.176;2022-11-23T11:47:26;35.42;;;15.23;;
59181;SDS011;45293;44.606;21.176;2022-11-23T11:49:54;37.00;;;16.25;;
59181;SDS011;45293;44.606;21.176;2022-11-23T11:52:32;44.30;;;17.95;;
59181;SDS011;45293;44.606;21.176;2022-11-23T11:55:06;51.97;;;20.73;;
59181;SDS011;45293;44.606;21.176;2022-11-23T11:57:36;37.08;;;16.90;;
59181;SDS011;45293;44.606;21.176;2022-11-23T12:00:06;44.35;;;18.83;;
59181;SDS011;45293;44.606;21.176;2022-11-23T12:02:36;27.52;;;14.32;;
59181;SDS011;45293;44.606;21.176;2022-11-23T12:05:09;27.20;;;13.90;;
59181;SDS011;45293;44.606;21.176;2022-11-23T12:08:12;24.48;;;11.85;;
59181;SDS011;45293;44.606;21.176;2022-11-23T12:10:50;24.70;;;9.63;;
59181;SDS011;45293;44.606;21.176;2022-11-23T12:13:19;16.27;;;7.93;;
59181;SDS011;45293;44.606;21.176;2022-11-23T12:15:51;22.00;;;9.75;;
59181;SDS011;45293;44.606;21.176;2022-11-23T12:26:44;19.95;;;8.75;;
59181;SDS011;45293;44.606;21.176;2022-11-23T12:29:01;24.88;;;10.43;;
59181;SDS011;45293;44.606;21.176;2022-11-23T12:32:21;21.08;;;10.27;;
59181;SDS011;45293;44.606;21.176;2022-11-23T12:36:59;19.92;;;9.73;;
59181;SDS011;45293;44.606;21.176;2022-11-23T12:42:10;18.70;;;9.18;;
59181;SDS011;45293;44.606;21.176;2022-11-23T12:47:20;24.58;;;11.50;;
59181;SDS011;45293;44.606;21.176;2022-11-23T12:50:33;28.75;;;10.02;;
59181;SDS011;45293;44.606;21.176;2022-11-23T13:00:04;22.95;;;12.07;;
59181;SDS011;45293;44.606;21.176;2022-11-23T13:12:57;22.15;;;11.70;;
59181;SDS011;45293;44.606;21.176;2022-11-23T13:18:04;18.13;;;9.75;;
59181;SDS011;45293;44.606;21.176;2022-11-23T13:23:07;20.73;;;9.43;;
59181;SDS011;45293;44.606;21.176;2022-11-23T13:25:34;27.67;;;12.95;;
59181;SDS011;45293;44.606;21.176;2022-11-23T13:30:44;20.38;;;9.63;;
59181;SDS011;45293;44.606;21.176;2022-11-23T13:33:35;17.95;;;9.07;;
59181;SDS011;45293;44.606;21.176;2022-11-23T13:36:02;24.48;;;11.07;;
59181;SDS011;45293;44.606;21.176;2022-11-23T13:38:34;35.40;;;15.70;;
59181;SDS011;45293;44.606;21.176;2022-11-23T13:41:00;36.70;;;17.55;;
59181;SDS011;45293;44.606;21.176;2022-11-23T13:43:30;21.45;;;11.95;;
59181;SDS011;45293;44.606;21.176;2022-11-23T13:48:43;21.48;;;11.63;;
59181;SDS011;45293;44.606;21.176;2022-11-23T13:51:09;18.98;;;9.20;;
59181;SDS011;45293;44.606;21.176;2022-11-23T13:53:39;18.15;;;9.60;;
59181;SDS011;45293;44.606;21.176;2022-11-23T14:04:20;19.35;;;10.57;;
59181;SDS011;45293;44.606;21.176;2022-11-23T14:06:48;17.95;;;10.00;;
59181;SDS011;45293;44.606;21.176;2022-11-23T14:11:51;19.38;;;9.32;;
59181;SDS011;45293;44.606;21.176;2022-11-23T14:14:21;21.70;;;10.00;;
59181;SDS011;45293;44.606;21.176;2022-11-23T14:25:22;17.45;;;9.07;;
59181;SDS011;45293;44.606;21.176;2022-11-23T14:30:48;22.30;;;12.27;;
59181;SDS011;45293;44.606;21.176;2022-11-23T14:33:27;24.63;;;13.90;;
59181;SDS011;45293;44.606;21.176;2022-11-23T14:38:30;26.85;;;14.85;;
59181;SDS011;45293;44.606;21.176;2022-11-23T14:41:06;29.13;;;13.30;;
59181;SDS011;45293;44.606;21.176;2022-11-23T14:43:33;28.08;;;15.25;;
59181;SDS011;45293;44.606;21.176;2022-11-23T14:46:01;26.52;;;15.57;;
59181;SDS011;45293;44.606;21.176;2022-11-23T14:48:30;31.20;;;15.15;;
59181;SDS011;45293;44.606;21.176;2022-11-23T14:51:04;29.25;;;15.68;;
59181;SDS011;45293;44.606;21.176;2022-11-23T14:55:56;23.75;;;14.23;;
59181;SDS011;45293;44.606;21.176;2022-11-23T14:58:23;28.40;;;16.08;;
59181;SDS011;45293;44.606;21.176;2022-11-23T15:00:52;24.25;;;15.02;;
59181;SDS011;45293;44.606;21.176;2022-11-23T15:03:25;23.17;;;14.02;;
59181;SDS011;45293;44.606;21.176;2022-11-23T15:05:53;22.75;;;13.38;;
59181;SDS011;45293;44.606;21.176;2022-11-23T15:08:25;16.83;;;11.10;;
59181;SDS011;45293;44.606;21.176;2022-11-23T15:10:59;19.43;;;11.17;;
59181;SDS011;45293;44.606;21.176;2022-11-23T15:13:29;21.13;;;11.57;;
59181;SDS011;45293;44.606;21.176;2022-11-23T15:15:56;15.85;;;9.55;;
59181;SDS011;45293;44.606;21.176;2022-11-23T15:18:32;16.58;;;9.43;;
59181;SDS011;45293;44.606;21.176;2022-11-23T15:21:15;16.42;;;10.18;;
59181;SDS011;45293;44.606;21.176;2022-11-23T15:24:00;13.85;;;7.85;;
59181;SDS011;45293;44.606;21.176;2022-11-23T15:26:27;13.15;;;7.95;;
59181;SDS011;45293;44.606;21.176;2022-11-23T15:28:53;12.45;;;7.93;;
59181;SDS011;45293;44.606;21.176;2022-11-23T15:31:36;15.70;;;7.85;;
59181;SDS011;45293;44.606;21.176;2022-11-23T15:34:08;16.63;;;9.85;;
59181;SDS011;45293;44.606;21.176;2022-11-23T15:36:36;7.25;;;4.57;;
59181;SDS011;45293;44.606;21.176;2022-11-23T15:39:03;7.20;;;5.10;;
59181;SDS011;45293;44.606;21.176;2022-11-23T15:41:33;7.07;;;5.32;;
59181;SDS011;45293;44.606;21.176;2022-11-23T15:43:59;6.90;;;5.18;;
59181;SDS011;45293;44.606;21.176;2022-11-23T15:46:27;9.82;;;6.03;;
59181;SDS011;45293;44.606;21.176;2022-11-23T15:48:54;8.27;;;5.55;;
59181;SDS011;45293;44.606;21.176;2022-11-23T15:51:33;7.38;;;5.20;;
59181;SDS011;45293;44.606;21.176;2022-11-23T15:54:01;7.20;;;5.15;;
59181;SDS011;45293;44.606;21.176;2022-11-23T15:56:31;9.07;;;4.95;;
59181;SDS011;45293;44.606;21.176;2022-11-23T15:58:58;8.10;;;4.43;;
59181;SDS011;45293;44.606;21.176;2022-11-23T16:01:25;9.82;;;4.85;;
59181;SDS011;45293;44.606;21.176;2022-11-23T16:03:53;7.30;;;4.32;;
59181;SDS011;45293;44.606;21.176;2022-11-23T16:08:56;6.93;;;4.13;;
59181;SDS011;45293;44.606;21.176;2022-11-23T16:11:33;7.68;;;4.68;;
59181;SDS011;45293;44.606;21.176;2022-11-23T16:14:10;9.13;;;5.20;;
59181;SDS011;45293;44.606;21.176;2022-11-23T16:16:36;13.93;;;5.47;;
59181;SDS011;45293;44.606;21.176;2022-11-23T16:19:02;9.43;;;5.18;;
59181;SDS011;45293;44.606;21.176;2022-11-23T16:21:29;8.35;;;5.05;;